sensor_id;sensor_type;location;lat;lon;timestamp;P1;durP1;ratioP1;P2;durP2;ratioP2
9745;SDS011;4912;50.836;12.958;2022-09-12T00:02:19;19.27;;;13.63;;
9745;SDS011;4912;50.836;12.958;2022-09-12T00:04:49;21.60;;;14.73;;
9745;SDS011;4912;50.836;12.958;2022-09-12T00:07:20;18.35;;;13.80;;
9745;SDS011;4912;50.836;12.958;2022-09-12T00:09:50;19.50;;;14.47;;
9745;SDS011;4912;50.836;12.958;2022-09-12T00:12:22;20.30;;;13.97;;
9745;SDS011;4912;50.836;12.958;2022-09-12T00:14:53;18.25;;;13.98;;
9745;SDS011;4912;50.836;12.958;2022-09-12T00:17:23;19.67;;;14.73;;
9745;SDS011;4912;50.836;12.958;2022-09-12T00:19:53;20.88;;;14.40;;
9745;SDS011;4912;50.836;12.958;2022-09-12T00:22:24;20.02;;;14.23;;
9745;SDS011;4912;50.836;12.958;2022-09-12T00:24:54;18.05;;;14.25;;
9745;SDS011;4912;50.836;12.958;2022-09-12T00:27:26;18.27;;;13.93;;
9745;SDS011;4912;50.836;12.958;2022-09-12T00:29:57;20.30;;;14.38;;
9745;SDS011;4912;50.836;12.958;2022-09-12T00:32:27;19.17;;;14.60;;
9745;SDS011;4912;50.836;12.958;2022-09-12T00:34:57;18.23;;;14.50;;
9745;SDS011;4912;50.836;12.958;2022-09-12T00:37:28;18.80;;;13.77;;
9745;SDS011;4912;50.836;12.958;2022-09-12T00:39:58;19.42;;;13.30;;
9745;SDS011;4912;50.836;12.958;2022-09-12T00:42:31;23.35;;;15.40;;
9745;SDS011;4912;50.836;12.958;2022-09-12T00:45:01;18.33;;;13.85;;
9745;SDS011;4912;50.836;12.958;2022-09-12T00:47:33;17.05;;;13.55;;
9745;SDS011;4912;50.836;12.958;2022-09-12T00:50:06;16.20;;;13.75;;
9745;SDS011;4912;50.836;12.958;2022-09-12T00:52:39;22.23;;;13.80;;
9745;SDS011;4912;50.836;12.958;2022-09-12T00:55:13;22.25;;;14.15;;
9745;SDS011;4912;50.836;12.958;2022-09-12T00:57:51;22.08;;;13.93;;
9745;SDS011;4912;50.836;12.958;2022-09-12T01:00:27;16.67;;;13.63;;
9745;SDS011;4912;50.836;12.958;2022-09-12T01:02:59;17.17;;;13.38;;
9745;SDS011;4912;50.836;12.958;2022-09-12T01:05:34;20.58;;;13.93;;
9745;SDS011;4912;50.836;12.958;2022-09-12T01:08:10;17.20;;;13.40;;
9745;SDS011;4912;50.836;12.958;2022-09-12T01:10:40;18.48;;;13.05;;
9745;SDS011;4912;50.836;12.958;2022-09-12T01:13:14;16.50;;;12.55;;
9745;SDS011;4912;50.836;12.958;2022-09-12T01:15:44;18.27;;;13.35;;
9745;SDS011;4912;50.836;12.958;2022-09-12T01:18:16;17.77;;;12.63;;
9745;SDS011;4912;50.836;12.958;2022-09-12T01:21:02;17.65;;;12.52;;
9745;SDS011;4912;50.836;12.958;2022-09-12T01:30:27;19.00;;;12.90;;
9745;SDS011;4912;50.836;12.958;2022-09-12T01:33:20;18.65;;;12.70;;
9745;SDS011;4912;50.836;12.958;2022-09-12T01:36:20;18.27;;;13.53;;
9745;SDS011;4912;50.836;12.958;2022-09-12T01:39:00;16.30;;;12.10;;
9745;SDS011;4912;50.836;12.958;2022-09-12T01:41:37;19.63;;;13.23;;
9745;SDS011;4912;50.836;12.958;2022-09-12T01:44:24;17.30;;;11.82;;
9745;SDS011;4912;50.836;12.958;2022-09-12T01:47:07;17.08;;;12.60;;
9745;SDS011;4912;50.836;12.958;2022-09-12T01:49:44;17.23;;;12.77;;
9745;SDS011;4912;50.836;12.958;2022-09-12T01:52:24;17.65;;;12.55;;
9745;SDS011;4912;50.836;12.958;2022-09-12T01:55:01;18.65;;;12.55;;
9745;SDS011;4912;50.836;12.958;2022-09-12T01:57:39;21.88;;;14.27;;
9745;SDS011;4912;50.836;12.958;2022-09-12T02:00:15;16.65;;;12.68;;
9745;SDS011;4912;50.836;12.958;2022-09-12T02:02:48;16.58;;;12.82;;
9745;SDS011;4912;50.836;12.958;2022-09-12T02:05:26;17.55;;;12.70;;
9745;SDS011;4912;50.836;12.958;2022-09-12T02:08:01;18.42;;;12.20;;
9745;SDS011;4912;50.836;12.958;2022-09-12T02:10:39;19.55;;;13.50;;
9745;SDS011;4912;50.836;12.958;2022-09-12T02:13:14;16.92;;;12.50;;
9745;SDS011;4912;50.836;12.958;2022-09-12T02:15:52;17.38;;;13.20;;
9745;SDS011;4912;50.836;12.958;2022-09-12T02:18:29;16.85;;;12.02;;
9745;SDS011;4912;50.836;12.958;2022-09-12T02:21:02;18.15;;;12.25;;
9745;SDS011;4912;50.836;12.958;2022-09-12T02:23:35;16.05;;;12.20;;
9745;SDS011;4912;50.836;12.958;2022-09-12T02:26:12;16.35;;;12.10;;
9745;SDS011;4912;50.836;12.958;2022-09-12T02:28:51;16.10;;;11.75;;
9745;SDS011;4912;50.836;12.958;2022-09-12T02:31:22;19.65;;;12.23;;
9745;SDS011;4912;50.836;12.958;2022-09-12T02:34:03;16.77;;;12.02;;
9745;SDS011;4912;50.836;12.958;2022-09-12T02:36:48;15.80;;;11.63;;
9745;SDS011;4912;50.836;12.958;2022-09-12T02:39:26;16.88;;;12.15;;
9745;SDS011;4912;50.836;12.958;2022-09-12T02:41:57;19.02;;;12.68;;
9745;SDS011;4912;50.836;12.958;2022-09-12T02:44:30;21.90;;;12.93;;
9745;SDS011;4912;50.836;12.958;2022-09-12T02:47:03;17.17;;;11.98;;
9745;SDS011;4912;50.836;12.958;2022-09-12T02:49:41;16.25;;;11.82;;
9745;SDS011;4912;50.836;12.958;2022-09-12T02:52:11;17.15;;;12.45;;
9745;SDS011;4912;50.836;12.958;2022-09-12T02:54:42;16.70;;;12.35;;
9745;SDS011;4912;50.836;12.958;2022-09-12T02:57:16;15.55;;;11.77;;
9745;SDS011;4912;50.836;12.958;2022-09-12T02:59:49;16.55;;;11.52;;
9745;SDS011;4912;50.836;12.958;2022-09-12T03:02:30;18.15;;;12.30;;
9745;SDS011;4912;50.836;12.958;2022-09-12T03:05:19;16.25;;;11.63;;
9745;SDS011;4912;50.836;12.958;2022-09-12T03:14:37;17.60;;;12.32;;
9745;SDS011;4912;50.836;12.958;2022-09-12T03:17:29;17.27;;;12.30;;
9745;SDS011;4912;50.836;12.958;2022-09-12T03:20:14;23.98;;;17.77;;
9745;SDS011;4912;50.836;12.958;2022-09-12T03:23:00;26.88;;;19.80;;
9745;SDS011;4912;50.836;12.958;2022-09-12T03:25:35;19.42;;;14.60;;
9745;SDS011;4912;50.836;12.958;2022-09-12T03:28:13;16.02;;;12.40;;
9745;SDS011;4912;50.836;12.958;2022-09-12T03:30:46;18.08;;;12.18;;
9745;SDS011;4912;50.836;12.958;2022-09-12T03:33:19;19.33;;;11.77;;
9745;SDS011;4912;50.836;12.958;2022-09-12T03:35:54;16.20;;;12.32;;
9745;SDS011;4912;50.836;12.958;2022-09-12T03:38:25;18.00;;;12.07;;
9745;SDS011;4912;50.836;12.958;2022-09-12T03:40:55;21.23;;;14.30;;
9745;SDS011;4912;50.836;12.958;2022-09-12T03:43:25;23.07;;;14.30;;
9745;SDS011;4912;50.836;12.958;2022-09-12T03:45:55;19.63;;;13.00;;
9745;SDS011;4912;50.836;12.958;2022-09-12T03:48:25;17.00;;;12.83;;
9745;SDS011;4912;50.836;12.958;2022-09-12T03:51:01;17.52;;;13.13;;
9745;SDS011;4912;50.836;12.958;2022-09-12T03:53:34;17.05;;;12.52;;
9745;SDS011;4912;50.836;12.958;2022-09-12T03:56:05;17.67;;;13.82;;
9745;SDS011;4912;50.836;12.958;2022-09-12T03:58:37;31.90;;;20.33;;
9745;SDS011;4912;50.836;12.958;2022-09-12T04:01:08;24.48;;;15.65;;
9745;SDS011;4912;50.836;12.958;2022-09-12T04:03:39;18.75;;;13.85;;
9745;SDS011;4912;50.836;12.958;2022-09-12T04:06:14;22.42;;;14.00;;
9745;SDS011;4912;50.836;12.958;2022-09-12T04:08:47;18.92;;;12.85;;
9745;SDS011;4912;50.836;12.958;2022-09-12T04:11:19;21.85;;;14.68;;
9745;SDS011;4912;50.836;12.958;2022-09-12T04:13:51;22.33;;;14.20;;
9745;SDS011;4912;50.836;12.958;2022-09-12T04:16:21;22.37;;;15.07;;
9745;SDS011;4912;50.836;12.958;2022-09-12T04:18:51;18.47;;;13.77;;
9745;SDS011;4912;50.836;12.958;2022-09-12T04:21:23;21.50;;;14.47;;
9745;SDS011;4912;50.836;12.958;2022-09-12T04:23:54;19.42;;;13.77;;
9745;SDS011;4912;50.836;12.958;2022-09-12T04:26:24;23.17;;;13.87;;
9745;SDS011;4912;50.836;12.958;2022-09-12T04:28:55;23.50;;;14.30;;
9745;SDS011;4912;50.836;12.958;2022-09-12T04:31:25;22.87;;;14.93;;
9745;SDS011;4912;50.836;12.958;2022-09-12T04:33:56;24.03;;;14.83;;
9745;SDS011;4912;50.836;12.958;2022-09-12T04:36:30;22.63;;;14.55;;
9745;SDS011;4912;50.836;12.958;2022-09-12T04:39:02;20.38;;;14.07;;
9745;SDS011;4912;50.836;12.958;2022-09-12T04:41:34;24.20;;;15.75;;
9745;SDS011;4912;50.836;12.958;2022-09-12T04:44:08;20.98;;;14.80;;
9745;SDS011;4912;50.836;12.958;2022-09-12T04:46:42;25.20;;;13.80;;
9745;SDS011;4912;50.836;12.958;2022-09-12T04:49:15;23.10;;;14.68;;
9745;SDS011;4912;50.836;12.958;2022-09-12T04:51:47;19.88;;;13.20;;
9745;SDS011;4912;50.836;12.958;2022-09-12T04:54:18;21.30;;;14.05;;
9745;SDS011;4912;50.836;12.958;2022-09-12T04:56:48;21.25;;;14.15;;
9745;SDS011;4912;50.836;12.958;2022-09-12T04:59:20;23.30;;;14.35;;
9745;SDS011;4912;50.836;12.958;2022-09-12T05:01:51;23.65;;;13.88;;
9745;SDS011;4912;50.836;12.958;2022-09-12T05:04:21;21.45;;;14.32;;
9745;SDS011;4912;50.836;12.958;2022-09-12T05:06:54;19.88;;;13.30;;
9745;SDS011;4912;50.836;12.958;2022-09-12T05:09:24;21.63;;;13.45;;
9745;SDS011;4912;50.836;12.958;2022-09-12T05:11:54;22.25;;;13.95;;
9745;SDS011;4912;50.836;12.958;2022-09-12T05:14:31;19.85;;;13.15;;
9745;SDS011;4912;50.836;12.958;2022-09-12T05:17:02;20.00;;;13.35;;
9745;SDS011;4912;50.836;12.958;2022-09-12T05:19:33;19.83;;;13.77;;
9745;SDS011;4912;50.836;12.958;2022-09-12T05:22:06;19.13;;;13.45;;
9745;SDS011;4912;50.836;12.958;2022-09-12T05:24:36;22.08;;;14.43;;
9745;SDS011;4912;50.836;12.958;2022-09-12T05:27:15;24.13;;;14.88;;
9745;SDS011;4912;50.836;12.958;2022-09-12T05:29:45;23.85;;;15.38;;
9745;SDS011;4912;50.836;12.958;2022-09-12T05:32:15;25.93;;;14.80;;
9745;SDS011;4912;50.836;12.958;2022-09-12T05:34:46;18.95;;;13.20;;
9745;SDS011;4912;50.836;12.958;2022-09-12T05:37:19;21.50;;;14.53;;
9745;SDS011;4912;50.836;12.958;2022-09-12T05:39:49;22.85;;;14.35;;
9745;SDS011;4912;50.836;12.958;2022-09-12T05:42:19;24.08;;;14.23;;
9745;SDS011;4912;50.836;12.958;2022-09-12T05:44:49;23.88;;;13.63;;
9745;SDS011;4912;50.836;12.958;2022-09-12T05:47:19;20.00;;;13.13;;
9745;SDS011;4912;50.836;12.958;2022-09-12T05:49:49;25.27;;;14.43;;
9745;SDS011;4912;50.836;12.958;2022-09-12T05:52:22;24.30;;;14.75;;
9745;SDS011;4912;50.836;12.958;2022-09-12T05:54:53;23.48;;;14.90;;
9745;SDS011;4912;50.836;12.958;2022-09-12T05:57:23;23.42;;;13.77;;
9745;SDS011;4912;50.836;12.958;2022-09-12T06:02:24;22.33;;;15.30;;
9745;SDS011;4912;50.836;12.958;2022-09-12T06:04:54;22.45;;;13.82;;
9745;SDS011;4912;50.836;12.958;2022-09-12T06:07:27;22.92;;;13.48;;
9745;SDS011;4912;50.836;12.958;2022-09-12T06:09:58;23.85;;;14.23;;
9745;SDS011;4912;50.836;12.958;2022-09-12T06:12:28;24.70;;;14.77;;
9745;SDS011;4912;50.836;12.958;2022-09-12T06:14:58;21.38;;;14.73;;
9745;SDS011;4912;50.836;12.958;2022-09-12T06:17:28;22.42;;;15.02;;
9745;SDS011;4912;50.836;12.958;2022-09-12T06:19:58;26.40;;;15.57;;
9745;SDS011;4912;50.836;12.958;2022-09-12T06:25:02;22.33;;;13.93;;
9745;SDS011;4912;50.836;12.958;2022-09-12T06:27:32;23.80;;;15.40;;
9745;SDS011;4912;50.836;12.958;2022-09-12T06:30:03;23.33;;;14.82;;
9745;SDS011;4912;50.836;12.958;2022-09-12T06:32:35;22.80;;;13.60;;
9745;SDS011;4912;50.836;12.958;2022-09-12T06:35:05;28.27;;;14.97;;
9745;SDS011;4912;50.836;12.958;2022-09-12T06:37:40;22.95;;;13.98;;
9745;SDS011;4912;50.836;12.958;2022-09-12T06:40:12;19.52;;;14.13;;
9745;SDS011;4912;50.836;12.958;2022-09-12T06:42:43;28.58;;;14.93;;
9745;SDS011;4912;50.836;12.958;2022-09-12T06:45:30;21.25;;;14.32;;
9745;SDS011;4912;50.836;12.958;2022-09-12T06:48:00;22.90;;;14.60;;
9745;SDS011;4912;50.836;12.958;2022-09-12T06:53:03;28.65;;;15.40;;
9745;SDS011;4912;50.836;12.958;2022-09-12T06:55:33;21.42;;;14.80;;
9745;SDS011;4912;50.836;12.958;2022-09-12T06:58:04;24.75;;;14.75;;
9745;SDS011;4912;50.836;12.958;2022-09-12T07:00:34;26.30;;;14.32;;
9745;SDS011;4912;50.836;12.958;2022-09-12T07:05:35;24.45;;;14.80;;
9745;SDS011;4912;50.836;12.958;2022-09-12T07:08:08;22.80;;;13.33;;
9745;SDS011;4912;50.836;12.958;2022-09-12T07:10:38;18.73;;;12.93;;
9745;SDS011;4912;50.836;12.958;2022-09-12T07:13:08;18.33;;;12.10;;
9745;SDS011;4912;50.836;12.958;2022-09-12T07:18:09;18.98;;;12.60;;
9745;SDS011;4912;50.836;12.958;2022-09-12T07:20:39;20.83;;;12.77;;
9745;SDS011;4912;50.836;12.958;2022-09-12T07:23:12;20.55;;;12.60;;
9745;SDS011;4912;50.836;12.958;2022-09-12T07:25:42;17.20;;;11.32;;
9745;SDS011;4912;50.836;12.958;2022-09-12T07:28:12;19.50;;;12.45;;
9745;SDS011;4912;50.836;12.958;2022-09-12T07:30:43;20.85;;;12.25;;
9745;SDS011;4912;50.836;12.958;2022-09-12T07:35:43;20.65;;;12.30;;
9745;SDS011;4912;50.836;12.958;2022-09-12T07:38:16;20.85;;;14.35;;
9745;SDS011;4912;50.836;12.958;2022-09-12T07:40:46;16.55;;;11.85;;
9745;SDS011;4912;50.836;12.958;2022-09-12T07:43:16;18.88;;;11.68;;
9745;SDS011;4912;50.836;12.958;2022-09-12T07:45:46;20.33;;;12.80;;
9745;SDS011;4912;50.836;12.958;2022-09-12T07:48:16;18.73;;;12.13;;
9745;SDS011;4912;50.836;12.958;2022-09-12T07:50:46;20.00;;;13.38;;
9745;SDS011;4912;50.836;12.958;2022-09-12T07:53:29;18.13;;;12.25;;
9745;SDS011;4912;50.836;12.958;2022-09-12T07:56:02;20.73;;;12.90;;
9745;SDS011;4912;50.836;12.958;2022-09-12T07:58:36;22.77;;;12.77;;
9745;SDS011;4912;50.836;12.958;2022-09-12T08:01:11;19.45;;;13.10;;
9745;SDS011;4912;50.836;12.958;2022-09-12T08:03:43;18.52;;;11.90;;
9745;SDS011;4912;50.836;12.958;2022-09-12T08:06:17;15.38;;;10.10;;
9745;SDS011;4912;50.836;12.958;2022-09-12T08:08:53;17.90;;;11.07;;
9745;SDS011;4912;50.836;12.958;2022-09-12T08:11:25;15.75;;;10.55;;
9745;SDS011;4912;50.836;12.958;2022-09-12T08:13:57;19.10;;;11.15;;
9745;SDS011;4912;50.836;12.958;2022-09-12T08:16:29;20.08;;;11.38;;
9745;SDS011;4912;50.836;12.958;2022-09-12T08:19:02;21.33;;;10.95;;
9745;SDS011;4912;50.836;12.958;2022-09-12T08:21:32;18.98;;;11.00;;
9745;SDS011;4912;50.836;12.958;2022-09-12T08:24:05;17.58;;;10.80;;
9745;SDS011;4912;50.836;12.958;2022-09-12T08:26:36;14.85;;;10.30;;
9745;SDS011;4912;50.836;12.958;2022-09-12T08:29:06;13.95;;;9.63;;
9745;SDS011;4912;50.836;12.958;2022-09-12T08:31:36;12.50;;;8.07;;
9745;SDS011;4912;50.836;12.958;2022-09-12T08:34:08;16.90;;;9.13;;
9745;SDS011;4912;50.836;12.958;2022-09-12T08:36:38;14.65;;;8.80;;
9745;SDS011;4912;50.836;12.958;2022-09-12T08:39:12;16.45;;;8.40;;
9745;SDS011;4912;50.836;12.958;2022-09-12T08:41:43;14.80;;;8.25;;
9745;SDS011;4912;50.836;12.958;2022-09-12T08:44:22;13.32;;;8.20;;
9745;SDS011;4912;50.836;12.958;2022-09-12T08:47:09;12.23;;;7.45;;
9745;SDS011;4912;50.836;12.958;2022-09-12T08:49:50;11.85;;;7.50;;
9745;SDS011;4912;50.836;12.958;2022-09-12T08:52:29;8.88;;;6.45;;
9745;SDS011;4912;50.836;12.958;2022-09-12T08:55:11;8.73;;;5.43;;
9745;SDS011;4912;50.836;12.958;2022-09-12T08:57:53;8.25;;;4.45;;
9745;SDS011;4912;50.836;12.958;2022-09-12T09:00:23;6.30;;;4.60;;
9745;SDS011;4912;50.836;12.958;2022-09-12T09:03:11;5.88;;;4.32;;
9745;SDS011;4912;50.836;12.958;2022-09-12T09:06:33;5.53;;;3.08;;
9745;SDS011;4912;50.836;12.958;2022-09-12T09:09:21;7.13;;;3.67;;
9745;SDS011;4912;50.836;12.958;2022-09-12T09:12:09;7.82;;;3.90;;
9745;SDS011;4912;50.836;12.958;2022-09-12T09:17:51;5.90;;;3.78;;
9745;SDS011;4912;50.836;12.958;2022-09-12T09:20:28;6.18;;;4.05;;
9745;SDS011;4912;50.836;12.958;2022-09-12T09:23:03;5.93;;;3.72;;
9745;SDS011;4912;50.836;12.958;2022-09-12T09:25:43;5.38;;;3.67;;
9745;SDS011;4912;50.836;12.958;2022-09-12T09:28:24;5.88;;;3.38;;
9745;SDS011;4912;50.836;12.958;2022-09-12T09:31:03;7.03;;;4.82;;
9745;SDS011;4912;50.836;12.958;2022-09-12T09:33:36;8.13;;;5.32;;
9745;SDS011;4912;50.836;12.958;2022-09-12T09:36:09;9.65;;;5.25;;
9745;SDS011;4912;50.836;12.958;2022-09-12T09:38:52;6.65;;;4.82;;
9745;SDS011;4912;50.836;12.958;2022-09-12T09:41:35;6.40;;;4.70;;
9745;SDS011;4912;50.836;12.958;2022-09-12T09:44:19;6.07;;;3.72;;
9745;SDS011;4912;50.836;12.958;2022-09-12T09:46:50;7.45;;;3.85;;
9745;SDS011;4912;50.836;12.958;2022-09-12T09:49:24;7.90;;;4.28;;
9745;SDS011;4912;50.836;12.958;2022-09-12T09:51:58;6.13;;;3.97;;
9745;SDS011;4912;50.836;12.958;2022-09-12T09:54:30;5.32;;;3.60;;
9745;SDS011;4912;50.836;12.958;2022-09-12T10:00:23;6.45;;;4.07;;
9745;SDS011;4912;50.836;12.958;2022-09-12T10:03:00;5.53;;;3.40;;
9745;SDS011;4912;50.836;12.958;2022-09-12T10:05:58;6.85;;;3.58;;
9745;SDS011;4912;50.836;12.958;2022-09-12T10:08:31;4.82;;;2.97;;
9745;SDS011;4912;50.836;12.958;2022-09-12T10:11:05;4.45;;;2.63;;
9745;SDS011;4912;50.836;12.958;2022-09-12T10:13:52;3.42;;;2.40;;
9745;SDS011;4912;50.836;12.958;2022-09-12T10:16:28;3.65;;;2.30;;
9745;SDS011;4912;50.836;12.958;2022-09-12T10:19:01;2.95;;;1.98;;
9745;SDS011;4912;50.836;12.958;2022-09-12T10:21:33;5.10;;;2.38;;
9745;SDS011;4912;50.836;12.958;2022-09-12T10:24:14;3.53;;;2.40;;
9745;SDS011;4912;50.836;12.958;2022-09-12T10:26:51;5.25;;;3.00;;
9745;SDS011;4912;50.836;12.958;2022-09-12T10:29:26;4.25;;;2.50;;
9745;SDS011;4912;50.836;12.958;2022-09-12T10:32:03;9.32;;;3.03;;
9745;SDS011;4912;50.836;12.958;2022-09-12T10:34:40;12.10;;;3.10;;
9745;SDS011;4912;50.836;12.958;2022-09-12T10:37:16;6.10;;;2.85;;
9745;SDS011;4912;50.836;12.958;2022-09-12T10:39:53;8.45;;;2.50;;
9745;SDS011;4912;50.836;12.958;2022-09-12T10:45:24;3.42;;;2.60;;
9745;SDS011;4912;50.836;12.958;2022-09-12T10:48:00;3.35;;;2.35;;
9745;SDS011;4912;50.836;12.958;2022-09-12T10:50:49;3.28;;;2.53;;
9745;SDS011;4912;50.836;12.958;2022-09-12T10:53:20;3.72;;;2.35;;
9745;SDS011;4912;50.836;12.958;2022-09-12T10:56:03;5.03;;;2.22;;
9745;SDS011;4912;50.836;12.958;2022-09-12T11:01:28;2.47;;;1.80;;
9745;SDS011;4912;50.836;12.958;2022-09-12T11:04:26;2.70;;;1.92;;
9745;SDS011;4912;50.836;12.958;2022-09-12T11:07:13;2.50;;;1.63;;
9745;SDS011;4912;50.836;12.958;2022-09-12T11:10:01;2.50;;;1.60;;
9745;SDS011;4912;50.836;12.958;2022-09-12T11:12:46;3.00;;;1.77;;
9745;SDS011;4912;50.836;12.958;2022-09-12T11:15:29;2.60;;;1.70;;
9745;SDS011;4912;50.836;12.958;2022-09-12T11:18:16;2.90;;;1.70;;
9745;SDS011;4912;50.836;12.958;2022-09-12T11:21:11;2.63;;;1.63;;
9745;SDS011;4912;50.836;12.958;2022-09-12T11:24:06;3.13;;;1.60;;
9745;SDS011;4912;50.836;12.958;2022-09-12T11:27:31;3.58;;;2.25;;
9745;SDS011;4912;50.836;12.958;2022-09-12T11:30:17;4.30;;;2.00;;
9745;SDS011;4912;50.836;12.958;2022-09-12T11:35:44;2.60;;;2.00;;
9745;SDS011;4912;50.836;12.958;2022-09-12T11:38:27;3.58;;;2.10;;
9745;SDS011;4912;50.836;12.958;2022-09-12T11:43:55;2.70;;;2.00;;
9745;SDS011;4912;50.836;12.958;2022-09-12T11:46:33;3.80;;;2.42;;
9745;SDS011;4912;50.836;12.958;2022-09-12T11:49:09;4.55;;;2.40;;
9745;SDS011;4912;50.836;12.958;2022-09-12T11:51:50;3.28;;;2.28;;
9745;SDS011;4912;50.836;12.958;2022-09-12T11:54:31;4.40;;;2.10;;
9745;SDS011;4912;50.836;12.958;2022-09-12T11:57:07;4.78;;;2.40;;
9745;SDS011;4912;50.836;12.958;2022-09-12T11:59:46;3.78;;;2.40;;
9745;SDS011;4912;50.836;12.958;2022-09-12T12:02:24;3.20;;;2.28;;
9745;SDS011;4912;50.836;12.958;2022-09-12T12:05:01;4.53;;;2.40;;
9745;SDS011;4912;50.836;12.958;2022-09-12T12:07:50;5.90;;;2.58;;
9745;SDS011;4912;50.836;12.958;2022-09-12T12:10:26;2.90;;;2.30;;
9745;SDS011;4912;50.836;12.958;2022-09-12T12:13:04;4.15;;;2.33;;
9745;SDS011;4912;50.836;12.958;2022-09-12T12:15:44;3.78;;;2.28;;
9745;SDS011;4912;50.836;12.958;2022-09-12T12:18:17;2.95;;;2.40;;
9745;SDS011;4912;50.836;12.958;2022-09-12T12:20:52;4.00;;;2.08;;
9745;SDS011;4912;50.836;12.958;2022-09-12T12:23:25;3.63;;;2.30;;
9745;SDS011;4912;50.836;12.958;2022-09-12T12:26:01;3.13;;;2.40;;
9745;SDS011;4912;50.836;12.958;2022-09-12T12:31:27;4.63;;;1.90;;
9745;SDS011;4912;50.836;12.958;2022-09-12T12:36:55;3.80;;;2.38;;
9745;SDS011;4912;50.836;12.958;2022-09-12T12:51:39;3.53;;;2.20;;
9745;SDS011;4912;50.836;12.958;2022-09-12T12:57:23;6.35;;;2.63;;
9745;SDS011;4912;50.836;12.958;2022-09-12T13:00:05;2.80;;;1.95;;
9745;SDS011;4912;50.836;12.958;2022-09-12T13:02:56;4.97;;;2.10;;
9745;SDS011;4912;50.836;12.958;2022-09-12T13:05:38;4.20;;;2.63;;
9745;SDS011;4912;50.836;12.958;2022-09-12T13:08:24;3.63;;;2.72;;
9745;SDS011;4912;50.836;12.958;2022-09-12T13:10:59;4.30;;;2.63;;
9745;SDS011;4912;50.836;12.958;2022-09-12T13:13:35;3.15;;;2.25;;
9745;SDS011;4912;50.836;12.958;2022-09-12T13:16:15;2.95;;;2.20;;
9745;SDS011;4912;50.836;12.958;2022-09-12T13:19:03;2.90;;;2.00;;
9745;SDS011;4912;50.836;12.958;2022-09-12T13:21:53;3.05;;;1.85;;
9745;SDS011;4912;50.836;12.958;2022-09-12T13:24:24;2.45;;;1.75;;
9745;SDS011;4912;50.836;12.958;2022-09-12T13:26:54;4.97;;;1.90;;
9745;SDS011;4912;50.836;12.958;2022-09-12T13:29:25;3.28;;;1.73;;
9745;SDS011;4912;50.836;12.958;2022-09-12T13:31:59;4.80;;;1.80;;
9745;SDS011;4912;50.836;12.958;2022-09-12T13:34:32;3.10;;;1.70;;
9745;SDS011;4912;50.836;12.958;2022-09-12T13:37:16;2.17;;;1.63;;
9745;SDS011;4912;50.836;12.958;2022-09-12T13:40:01;3.20;;;1.90;;
9745;SDS011;4912;50.836;12.958;2022-09-12T13:45:53;4.38;;;1.90;;
9745;SDS011;4912;50.836;12.958;2022-09-12T13:48:26;2.38;;;1.70;;
9745;SDS011;4912;50.836;12.958;2022-09-12T13:50:57;7.93;;;2.70;;
9745;SDS011;4912;50.836;12.958;2022-09-12T13:53:31;3.33;;;2.10;;
9745;SDS011;4912;50.836;12.958;2022-09-12T13:56:14;3.30;;;2.20;;
9745;SDS011;4912;50.836;12.958;2022-09-12T13:58:50;4.10;;;2.20;;
9745;SDS011;4912;50.836;12.958;2022-09-12T14:01:23;3.80;;;2.42;;
9745;SDS011;4912;50.836;12.958;2022-09-12T14:04:12;4.30;;;2.08;;
9745;SDS011;4912;50.836;12.958;2022-09-12T14:06:58;3.60;;;2.47;;
9745;SDS011;4912;50.836;12.958;2022-09-12T14:09:33;3.95;;;2.08;;
9745;SDS011;4912;50.836;12.958;2022-09-12T14:12:14;3.42;;;1.90;;
9745;SDS011;4912;50.836;12.958;2022-09-12T14:14:52;5.53;;;1.95;;
9745;SDS011;4912;50.836;12.958;2022-09-12T14:17:23;3.80;;;1.98;;
9745;SDS011;4912;50.836;12.958;2022-09-12T14:20:01;3.08;;;1.73;;
9745;SDS011;4912;50.836;12.958;2022-09-12T14:22:35;2.85;;;2.00;;
9745;SDS011;4912;50.836;12.958;2022-09-12T14:25:09;3.10;;;1.80;;
9745;SDS011;4912;50.836;12.958;2022-09-12T14:27:45;3.63;;;1.85;;
9745;SDS011;4912;50.836;12.958;2022-09-12T14:30:20;5.88;;;2.50;;
9745;SDS011;4912;50.836;12.958;2022-09-12T14:33:03;4.45;;;2.00;;
9745;SDS011;4912;50.836;12.958;2022-09-12T14:35:49;3.47;;;2.10;;
9745;SDS011;4912;50.836;12.958;2022-09-12T14:38:22;6.10;;;2.30;;
9745;SDS011;4912;50.836;12.958;2022-09-12T14:41:00;3.17;;;2.00;;
9745;SDS011;4912;50.836;12.958;2022-09-12T14:43:35;2.95;;;1.83;;
9745;SDS011;4912;50.836;12.958;2022-09-12T14:46:13;3.05;;;2.13;;
9745;SDS011;4912;50.836;12.958;2022-09-12T14:48:48;3.28;;;2.30;;
9745;SDS011;4912;50.836;12.958;2022-09-12T14:51:25;2.85;;;1.85;;
9745;SDS011;4912;50.836;12.958;2022-09-12T14:54:00;4.18;;;2.00;;
9745;SDS011;4912;50.836;12.958;2022-09-12T14:56:38;3.40;;;2.00;;
9745;SDS011;4912;50.836;12.958;2022-09-12T14:59:25;4.93;;;2.30;;
9745;SDS011;4912;50.836;12.958;2022-09-12T15:04:51;4.68;;;1.80;;
9745;SDS011;4912;50.836;12.958;2022-09-12T15:07:27;3.00;;;2.00;;
9745;SDS011;4912;50.836;12.958;2022-09-12T15:10:04;2.78;;;2.03;;
9745;SDS011;4912;50.836;12.958;2022-09-12T15:12:47;3.55;;;2.17;;
9745;SDS011;4912;50.836;12.958;2022-09-12T15:15:19;3.30;;;2.20;;
9745;SDS011;4912;50.836;12.958;2022-09-12T15:17:49;4.80;;;2.20;;
9745;SDS011;4912;50.836;12.958;2022-09-12T15:20:19;4.03;;;1.95;;
9745;SDS011;4912;50.836;12.958;2022-09-12T15:25:22;4.65;;;2.53;;
9745;SDS011;4912;50.836;12.958;2022-09-12T15:27:53;4.20;;;2.40;;
9745;SDS011;4912;50.836;12.958;2022-09-12T15:30:23;4.05;;;2.30;;
9745;SDS011;4912;50.836;12.958;2022-09-12T15:32:53;3.63;;;2.70;;
9745;SDS011;4912;50.836;12.958;2022-09-12T15:35:25;3.58;;;2.53;;
9745;SDS011;4912;50.836;12.958;2022-09-12T15:38:03;5.25;;;2.50;;
9745;SDS011;4912;50.836;12.958;2022-09-12T15:40:33;3.72;;;2.60;;
9745;SDS011;4912;50.836;12.958;2022-09-12T15:43:03;3.28;;;2.42;;
9745;SDS011;4912;50.836;12.958;2022-09-12T15:45:34;4.60;;;2.42;;
9745;SDS011;4912;50.836;12.958;2022-09-12T15:48:04;8.07;;;2.30;;
9745;SDS011;4912;50.836;12.958;2022-09-12T15:50:35;3.08;;;2.38;;
9745;SDS011;4912;50.836;12.958;2022-09-12T15:53:08;3.85;;;2.67;;
9745;SDS011;4912;50.836;12.958;2022-09-12T15:55:42;4.47;;;2.60;;
9745;SDS011;4912;50.836;12.958;2022-09-12T15:58:13;3.60;;;2.50;;
9745;SDS011;4912;50.836;12.958;2022-09-12T16:00:43;3.00;;;2.38;;
9745;SDS011;4912;50.836;12.958;2022-09-12T16:03:16;4.50;;;2.72;;
9745;SDS011;4912;50.836;12.958;2022-09-12T16:05:54;4.28;;;2.42;;
9745;SDS011;4912;50.836;12.958;2022-09-12T16:08:29;4.85;;;2.72;;
9745;SDS011;4912;50.836;12.958;2022-09-12T16:11:01;4.70;;;2.72;;
9745;SDS011;4912;50.836;12.958;2022-09-12T16:13:33;3.17;;;2.53;;
9745;SDS011;4912;50.836;12.958;2022-09-12T16:16:04;4.07;;;2.45;;
9745;SDS011;4912;50.836;12.958;2022-09-12T16:18:35;3.97;;;2.70;;
9745;SDS011;4912;50.836;12.958;2022-09-12T16:21:08;5.32;;;2.58;;
9745;SDS011;4912;50.836;12.958;2022-09-12T16:23:44;4.28;;;2.60;;
9745;SDS011;4912;50.836;12.958;2022-09-12T16:26:15;7.13;;;2.90;;
9745;SDS011;4912;50.836;12.958;2022-09-12T16:28:46;5.05;;;2.92;;
9745;SDS011;4912;50.836;12.958;2022-09-12T16:31:17;3.97;;;2.60;;
9745;SDS011;4912;50.836;12.958;2022-09-12T16:33:47;3.90;;;2.80;;
9745;SDS011;4912;50.836;12.958;2022-09-12T16:36:19;3.72;;;2.88;;
9745;SDS011;4912;50.836;12.958;2022-09-12T16:38:53;3.90;;;2.78;;
9745;SDS011;4912;50.836;12.958;2022-09-12T16:41:23;4.75;;;3.10;;
9745;SDS011;4912;50.836;12.958;2022-09-12T16:43:54;4.55;;;2.88;;
9745;SDS011;4912;50.836;12.958;2022-09-12T16:46:24;4.30;;;2.90;;
9745;SDS011;4912;50.836;12.958;2022-09-12T16:48:57;3.72;;;2.55;;
9745;SDS011;4912;50.836;12.958;2022-09-12T16:51:29;5.60;;;2.90;;
9745;SDS011;4912;50.836;12.958;2022-09-12T16:54:04;5.18;;;2.70;;